Ponte Vedra Beach, Florida
Current Conditions -  °F | °C
As of 5:53 PM on Wednesday 22 Oct 2014 (Local Time) from KCRG Reporting Station
Clear Clear  
Wind Chill: 70°   Ceiling: Unl
Heat Index: 70°   Visibility: 10mi
Dew Point: 52°   Wind: 8mph
Humidity: 53%   Direction: 50°NE
Pressure: 30"   Gusts: NA
Location:  30.24°N, 81.39°W
Report Text: KCRG 222153Z 05007KT 10SM CLR 21/11 A3000 RMK AO2 SLP159 T02110111
Loading
Personal Weather Stations






























Interactive Weather Map
Tropical Storm Tracking
New forecast layout! Learn more

10-Day Weather Forecast

Advertisements
Track Severe Weather on mobile